Weather observations for the past three days for
Renton Municipal Airport
Metric (Imperial)
Date Time (pdt) Wind (kph) Vis. (km) Weather Sky Cond. Temperature (ºC) Relative Humidity Wind Chill (°C) Heat Index (°C) Pressure Precipitation (cm)
Air Dwpt 6 hour altimeter (cm) sea level (mb) 1 hr 3 hr 6 hr
Max. Min.
04 15:53 W 7 12.87 Fair CLR 26.1 6.1 28% 26 75.72 1009.8
04 14:53 Vrbl 7 16.09 Fair CLR 25.6 6.7 30% 26 75.74 1010.4
04 13:53 W 9 16.09 Fair CLR 25 8.3 35% 26 75.77 1010.7
04 12:53 S 15 16.09 Fair CLR 24.4 8.3 36% 25 75.79 1010.9
04 11:53 SW 13 16.09 Fair CLR 23.3 8.3 38% 75.82 1011.1
04 10:53 S 11 16.09 Fair CLR 22.2 8.9 22.2 11.7 43% 75.82 1011.4
04 09:53 S 7 16.09 Fair CLR 20.6 9.4 49% 75.82 1011.3
04 08:53 S 11 16.09 Fair CLR 17.8 8.9 56% 75.82 1011.2
04 07:53 S 6 16.09 Fair CLR 15 9.4 69% 75.79 1010.8
04 06:53 SE 7 16.09 Fair CLR 12.8 8.9 77% 75.77 1010.6
04 05:53 S 6 16.09 Fair CLR 11.7 8.9 83% 75.72 1010.0
04 04:53 SE 6 16.09 Fair CLR 12.2 9.4 17.8 12.2 83% 75.72 1009.9
04 03:53 Calm 16.09 Fair CLR 12.8 10 83% 75.72 1010.0
04 02:53 S 6 16.09 Fair CLR 13.9 10 78% 75.69 1009.7
04 01:53 Calm 16.09 Fair CLR 15 11.1 78% 75.69 1009.6
04 00:53 Calm 16.09 Fair CLR 16.1 10.6 70% 75.69 1009.7
03 23:53 Calm 16.09 Fair CLR 16.7 10 65% 75.69 1009.6
03 22:53 N 6 16.09 Fair CLR 16.7 12.2 26.7 16.7 75% 75.69 1009.5
03 21:53 Calm 16.09 Fair CLR 19.4 10.6 57% 75.69 1009.5
03 20:53 N 11 16.09 Fair CLR 20.6 11.1 55% 75.67 1009.2
03 19:53 N 11 16.09 Fair CLR 21.7 10.6 49% 75.64 1008.9
03 18:53 NW 19 16.09 Fair CLR 24.4 9.4 39% 25 75.64 1009.0
03 17:53 NW 17 16.09 Fair CLR 26.1 10 36% 26 75.67 1009.3
03 16:53 NW 20 16.09 Fair CLR 26.1 10.6 26.7 20.6 38% 26 75.72 1009.9
03 15:53 NW 22 16.09 Fair CLR 26.1 11.1 39% 26 75.77 1010.6
03 14:53 NW 20 16.09 Fair CLR 26.1 10.6 38% 26 75.82 1011.1
03 13:53 NW 20 16.09 Fair CLR 25 10 39% 26 75.87 1011.8
03 12:53 NW 19 16.09 Fair CLR 24.4 10.6 42% 25 75.92 1012.6
03 11:53 NW 17 16.09 Fair CLR 22.8 11.1 48% 75.97 1013.4
03 10:53 NW 13 16.09 Fair CLR 21.1 11.1 21.1 11.1 53% 76 1013.8
03 09:53 NW 9 16.09 Fair CLR 18.9 11.1 61% 76.05 1014.2
03 08:53 N 9 16.09 Fair CLR 16.1 11.1 72% 76.07 1014.6
03 07:53 N 7 16.09 Fair CLR 14.4 10.6 78% 76.07 1014.6
03 06:53 Calm 16.09 Fair CLR 12.2 10 87% 76.05 1014.4
03 05:53 Calm 16.09 Fair CLR 11.7 9.4 86% 76.05 1014.4
03 04:53 Calm 16.09 Fair CLR 11.7 10 17.8 11.7 89% 76.07 1014.5
03 03:53 Calm 16.09 Fair CLR 12.8 10 83% 76.07 1014.6
03 02:53 Calm 16.09 Fair CLR 13.3 9.4 77% 76.07 1014.6
03 01:53 Calm 16.09 Fair CLR 13.9 9.4 74% 76.1 1014.9
03 00:53 Calm 16.09 Fair CLR 15.6 8.9 65% 76.07 1014.6
02 23:53 N 6 16.09 Fair CLR 16.1 10 67% 76.05 1014.5
02 22:53 N 7 16.09 Fair CLR 17.8 8.9 23.3 17.2 56% 76.05 1014.3
02 21:53 NW 11 16.09 Fair CLR 17.8 9.4 58% 76.05 1014.2
02 20:53 N 11 16.09 Fair CLR 17.8 11.1 65% 76 1013.6
02 19:53 NW 20 16.09 Fair CLR 21.1 10 49% 75.95 1012.8
02 18:53 NW 22 16.09 Fair CLR 22.2 11.1 50% 75.92 1012.7
02 17:53 NW 20 16.09 Fair CLR 22.8 10.6 46% 75.95 1012.8
02 16:53 NW 22 16.09 Fair CLR 22.8 11.1 23.3 16.1 48% 75.97 1013.2
02 15:53 NW 22 16.09 Fair CLR 22.8 10.6 46% 76.02 1013.9
02 14:53 NW 24 16.09 Fair CLR 21.7 12.2 55% 76.07 1014.7
02 13:53 NW 22 16.09 Fair CLR 20.6 11.1 55% 76.12 1015.3
02 12:53 NW 22 16.09 Fair CLR 19.4 11.7 61% 76.17 1015.9
02 11:53 NW 19 16.09 Fair CLR 17.8 11.1 65% 76.23 1016.5
02 10:53 NW 17 16.09 Fair CLR 16.1 11.1 16.1 11.1 72% 76.25 1017.0
02 09:53 N 15 16.09 Fair CLR 15 10.6 75% 76.25 1017.1
02 08:53 NW 7 16.09 Fair CLR 13.3 10 81% 76.28 1017.5
02 07:53 NW 9 16.09 Fair CLR 12.2 10 87% 76.25 1017.2
02 06:53 NW 7 16.09 Fair CLR 11.7 9.4 86% 76.25 1017.0
02 05:53 S 7 16.09 Partly Cloudy FEW065 SCT085 11.7 9.4 86% 76.28 1017.3
02 04:53 S 7 16.09 Mostly Cloudy BKN120 11.7 9.4 16.1 11.7 86% 76.28 1017.5
02 03:53 S 15 16.09 Fair CLR 12.2 9.4 83% 76.33 1017.9
02 02:53 NW 6 16.09 Fair CLR 12.8 8.3 74% 76.23 1016.8
02 01:53 SW 6 16.09 A Few Clouds FEW110 14.4 7.8 65% 76.25 1017.1
02 00:53 Calm 16.09 Fair CLR 14.4 6.7 60% 76.23 1016.8
01 23:53 NW 7 16.09 Partly Cloudy SCT120 15.6 6.7 56% 76.23 1016.5
01 22:53 N 6 16.09 Mostly Cloudy BKN120 15.6 10.6 21.1 15.6 72% 76.2 1016.3
01 21:53 N 7 16.09 Partly Cloudy SCT120 16.1 11.1 72% 76.15 1015.8
01 20:53 NW 11 16.09 Partly Cloudy FEW055 FEW080 SCT100 16.7 10.6 67% 76.12 1015.5
01 19:53 NW 13 16.09 Mostly Cloudy BKN110 18.3 8.9 54% 76.07 1014.7
01 18:53 N 15 16.09 Mostly Cloudy BKN120 19.4 9.4 53% 76.05 1014.4
01 17:53 N 9 16.09 Mostly Cloudy BKN120 19.4 10 55% 76.07 1014.6
01 16:53 N 15 16.09 Fair CLR 21.1 9.4 21.7 17.8 47% 76.05 1014.4
Date Time (pdt) Wind (kph) Vis. (km) Weather Sky Cond. Air Dwpt Max. Min. Relative Humidity Wind Chill (°C) Heat Index (°C) altimeter (cm) sea level (mb) 1 hr 3 hr 6 hr
6 hour
Temperature (ºC) Pressure Precipitation (cm)